sensor_id;sensor_type;location;lat;lon;timestamp;P1;durP1;ratioP1;P2;durP2;ratioP2
4577;SDS011;2301;47.354;8.528;2023-04-09T00:01:53;14.77;;;12.27;;
4577;SDS011;2301;47.354;8.528;2023-04-09T00:04:20;14.20;;;11.90;;
4577;SDS011;2301;47.354;8.528;2023-04-09T00:06:47;14.88;;;11.02;;
4577;SDS011;2301;47.354;8.528;2023-04-09T00:09:16;12.95;;;10.77;;
4577;SDS011;2301;47.354;8.528;2023-04-09T00:11:44;11.95;;;10.57;;
4577;SDS011;2301;47.354;8.528;2023-04-09T00:14:11;12.70;;;10.75;;
4577;SDS011;2301;47.354;8.528;2023-04-09T00:16:38;13.23;;;10.18;;
4577;SDS011;2301;47.354;8.528;2023-04-09T00:19:06;13.55;;;10.85;;
4577;SDS011;2301;47.354;8.528;2023-04-09T00:21:33;15.70;;;11.30;;
4577;SDS011;2301;47.354;8.528;2023-04-09T00:24:00;15.07;;;11.55;;
4577;SDS011;2301;47.354;8.528;2023-04-09T00:26:29;13.27;;;11.32;;
4577;SDS011;2301;47.354;8.528;2023-04-09T00:28:56;14.65;;;12.38;;
4577;SDS011;2301;47.354;8.528;2023-04-09T00:31:23;18.85;;;13.10;;
4577;SDS011;2301;47.354;8.528;2023-04-09T00:33:50;14.80;;;12.45;;
4577;SDS011;2301;47.354;8.528;2023-04-09T00:36:17;15.88;;;12.32;;
4577;SDS011;2301;47.354;8.528;2023-04-09T00:38:44;15.93;;;12.63;;
4577;SDS011;2301;47.354;8.528;2023-04-09T00:41:12;14.75;;;12.45;;
4577;SDS011;2301;47.354;8.528;2023-04-09T00:43:41;14.52;;;12.55;;
4577;SDS011;2301;47.354;8.528;2023-04-09T00:46:08;16.10;;;12.55;;
4577;SDS011;2301;47.354;8.528;2023-04-09T00:48:35;14.60;;;12.95;;
4577;SDS011;2301;47.354;8.528;2023-04-09T00:51:02;15.02;;;12.63;;
4577;SDS011;2301;47.354;8.528;2023-04-09T00:53:29;19.15;;;13.95;;
4577;SDS011;2301;47.354;8.528;2023-04-09T00:55:56;16.65;;;13.23;;
4577;SDS011;2301;47.354;8.528;2023-04-09T00:58:24;20.42;;;13.00;;
4577;SDS011;2301;47.354;8.528;2023-04-09T01:00:52;15.45;;;13.45;;
4577;SDS011;2301;47.354;8.528;2023-04-09T01:03:19;19.52;;;13.27;;
4577;SDS011;2301;47.354;8.528;2023-04-09T01:05:48;17.58;;;12.50;;
4577;SDS011;2301;47.354;8.528;2023-04-09T01:08:22;14.38;;;11.57;;
4577;SDS011;2301;47.354;8.528;2023-04-09T01:11:01;20.88;;;13.48;;
4577;SDS011;2301;47.354;8.528;2023-04-09T01:13:34;16.33;;;13.35;;
4577;SDS011;2301;47.354;8.528;2023-04-09T01:16:09;15.68;;;12.25;;
4577;SDS011;2301;47.354;8.528;2023-04-09T01:18:42;15.45;;;13.27;;
4577;SDS011;2301;47.354;8.528;2023-04-09T01:21:15;16.50;;;13.68;;
4577;SDS011;2301;47.354;8.528;2023-04-09T01:23:46;15.40;;;13.05;;
4577;SDS011;2301;47.354;8.528;2023-04-09T01:26:26;17.02;;;12.00;;
4577;SDS011;2301;47.354;8.528;2023-04-09T01:29:04;15.88;;;13.00;;
4577;SDS011;2301;47.354;8.528;2023-04-09T01:31:34;16.08;;;13.63;;
4577;SDS011;2301;47.354;8.528;2023-04-09T01:34:04;15.82;;;13.32;;
4577;SDS011;2301;47.354;8.528;2023-04-09T01:36:33;17.75;;;11.55;;
4577;SDS011;2301;47.354;8.528;2023-04-09T01:39:02;17.27;;;14.50;;
4577;SDS011;2301;47.354;8.528;2023-04-09T01:41:30;16.02;;;13.07;;
4577;SDS011;2301;47.354;8.528;2023-04-09T01:43:59;15.70;;;13.25;;
4577;SDS011;2301;47.354;8.528;2023-04-09T01:46:29;18.80;;;13.73;;
4577;SDS011;2301;47.354;8.528;2023-04-09T01:48:58;17.85;;;13.43;;
4577;SDS011;2301;47.354;8.528;2023-04-09T01:51:26;15.90;;;12.27;;
4577;SDS011;2301;47.354;8.528;2023-04-09T01:53:55;15.38;;;13.15;;
4577;SDS011;2301;47.354;8.528;2023-04-09T01:56:22;15.88;;;13.38;;
4577;SDS011;2301;47.354;8.528;2023-04-09T01:58:50;16.55;;;13.32;;
4577;SDS011;2301;47.354;8.528;2023-04-09T02:01:19;15.82;;;12.43;;
4577;SDS011;2301;47.354;8.528;2023-04-09T02:03:53;17.05;;;12.98;;
4577;SDS011;2301;47.354;8.528;2023-04-09T02:06:24;17.13;;;13.00;;
4577;SDS011;2301;47.354;8.528;2023-04-09T02:08:57;17.58;;;13.77;;
4577;SDS011;2301;47.354;8.528;2023-04-09T02:11:27;17.60;;;14.00;;
4577;SDS011;2301;47.354;8.528;2023-04-09T02:13:55;17.70;;;14.52;;
4577;SDS011;2301;47.354;8.528;2023-04-09T02:16:22;15.73;;;13.40;;
4577;SDS011;2301;47.354;8.528;2023-04-09T02:18:54;20.90;;;14.48;;
4577;SDS011;2301;47.354;8.528;2023-04-09T02:21:21;16.92;;;14.02;;
4577;SDS011;2301;47.354;8.528;2023-04-09T02:23:51;18.58;;;14.77;;
4577;SDS011;2301;47.354;8.528;2023-04-09T02:26:17;16.83;;;13.60;;
4577;SDS011;2301;47.354;8.528;2023-04-09T02:28:45;20.17;;;14.45;;
4577;SDS011;2301;47.354;8.528;2023-04-09T02:31:12;18.98;;;14.10;;
4577;SDS011;2301;47.354;8.528;2023-04-09T02:33:39;21.25;;;15.57;;
4577;SDS011;2301;47.354;8.528;2023-04-09T02:36:09;18.10;;;14.30;;
4577;SDS011;2301;47.354;8.528;2023-04-09T02:38:36;17.70;;;14.65;;
4577;SDS011;2301;47.354;8.528;2023-04-09T02:41:06;19.00;;;16.75;;
4577;SDS011;2301;47.354;8.528;2023-04-09T02:43:33;23.63;;;15.30;;
4577;SDS011;2301;47.354;8.528;2023-04-09T02:46:00;18.45;;;15.27;;
4577;SDS011;2301;47.354;8.528;2023-04-09T02:48:27;20.52;;;15.57;;
4577;SDS011;2301;47.354;8.528;2023-04-09T02:50:54;19.98;;;16.65;;
4577;SDS011;2301;47.354;8.528;2023-04-09T02:53:22;20.20;;;16.05;;
4577;SDS011;2301;47.354;8.528;2023-04-09T02:55:50;20.50;;;15.07;;
4577;SDS011;2301;47.354;8.528;2023-04-09T02:58:17;20.83;;;16.30;;
4577;SDS011;2301;47.354;8.528;2023-04-09T03:00:44;20.52;;;16.08;;
4577;SDS011;2301;47.354;8.528;2023-04-09T03:03:11;19.42;;;16.17;;
4577;SDS011;2301;47.354;8.528;2023-04-09T03:05:38;19.98;;;15.98;;
4577;SDS011;2301;47.354;8.528;2023-04-09T03:08:05;17.73;;;15.10;;
4577;SDS011;2301;47.354;8.528;2023-04-09T03:10:33;19.63;;;14.77;;
4577;SDS011;2301;47.354;8.528;2023-04-09T03:13:00;17.40;;;14.90;;
4577;SDS011;2301;47.354;8.528;2023-04-09T03:15:28;18.17;;;15.93;;
4577;SDS011;2301;47.354;8.528;2023-04-09T03:17:55;20.20;;;16.10;;
4577;SDS011;2301;47.354;8.528;2023-04-09T03:20:22;18.90;;;16.25;;
4577;SDS011;2301;47.354;8.528;2023-04-09T03:22:49;20.10;;;16.05;;
4577;SDS011;2301;47.354;8.528;2023-04-09T03:25:16;18.83;;;15.70;;
4577;SDS011;2301;47.354;8.528;2023-04-09T03:27:46;19.55;;;15.95;;
4577;SDS011;2301;47.354;8.528;2023-04-09T03:30:13;20.00;;;16.13;;
4577;SDS011;2301;47.354;8.528;2023-04-09T03:32:40;21.48;;;15.13;;
4577;SDS011;2301;47.354;8.528;2023-04-09T03:35:07;19.92;;;15.18;;
4577;SDS011;2301;47.354;8.528;2023-04-09T03:37:34;18.60;;;15.60;;
4577;SDS011;2301;47.354;8.528;2023-04-09T03:40:02;20.35;;;16.40;;
4577;SDS011;2301;47.354;8.528;2023-04-09T03:42:29;18.77;;;15.60;;
4577;SDS011;2301;47.354;8.528;2023-04-09T03:44:58;20.35;;;16.35;;
4577;SDS011;2301;47.354;8.528;2023-04-09T03:47:25;18.73;;;15.73;;
4577;SDS011;2301;47.354;8.528;2023-04-09T03:49:51;19.60;;;14.70;;
4577;SDS011;2301;47.354;8.528;2023-04-09T03:52:18;17.75;;;14.98;;
4577;SDS011;2301;47.354;8.528;2023-04-09T03:54:45;19.65;;;16.60;;
4577;SDS011;2301;47.354;8.528;2023-04-09T03:57:12;19.60;;;15.55;;
4577;SDS011;2301;47.354;8.528;2023-04-09T03:59:40;17.92;;;15.10;;
4577;SDS011;2301;47.354;8.528;2023-04-09T04:02:08;20.17;;;15.57;;
4577;SDS011;2301;47.354;8.528;2023-04-09T04:04:35;17.50;;;15.40;;
4577;SDS011;2301;47.354;8.528;2023-04-09T04:07:02;17.58;;;14.80;;
4577;SDS011;2301;47.354;8.528;2023-04-09T04:09:29;19.33;;;15.60;;
4577;SDS011;2301;47.354;8.528;2023-04-09T04:11:56;18.77;;;15.27;;
4577;SDS011;2301;47.354;8.528;2023-04-09T04:14:23;17.15;;;15.23;;
4577;SDS011;2301;47.354;8.528;2023-04-09T04:16:50;18.00;;;15.02;;
4577;SDS011;2301;47.354;8.528;2023-04-09T04:19:19;19.48;;;15.95;;
4577;SDS011;2301;47.354;8.528;2023-04-09T04:21:45;19.17;;;16.33;;
4577;SDS011;2301;47.354;8.528;2023-04-09T04:24:13;17.13;;;14.25;;
4577;SDS011;2301;47.354;8.528;2023-04-09T04:26:40;18.25;;;15.88;;
4577;SDS011;2301;47.354;8.528;2023-04-09T04:29:07;18.83;;;15.45;;
4577;SDS011;2301;47.354;8.528;2023-04-09T04:31:34;18.60;;;15.20;;
4577;SDS011;2301;47.354;8.528;2023-04-09T04:34:01;20.65;;;16.73;;
4577;SDS011;2301;47.354;8.528;2023-04-09T04:36:29;17.55;;;14.98;;
4577;SDS011;2301;47.354;8.528;2023-04-09T04:38:56;18.92;;;15.07;;
4577;SDS011;2301;47.354;8.528;2023-04-09T04:41:23;23.27;;;14.50;;
4577;SDS011;2301;47.354;8.528;2023-04-09T04:43:50;19.80;;;15.40;;
4577;SDS011;2301;47.354;8.528;2023-04-09T04:46:17;18.35;;;15.55;;
4577;SDS011;2301;47.354;8.528;2023-04-09T04:48:45;23.13;;;16.17;;
4577;SDS011;2301;47.354;8.528;2023-04-09T04:51:12;18.33;;;15.32;;
4577;SDS011;2301;47.354;8.528;2023-04-09T04:53:41;17.88;;;15.38;;
4577;SDS011;2301;47.354;8.528;2023-04-09T04:56:11;21.23;;;16.17;;
4577;SDS011;2301;47.354;8.528;2023-04-09T04:58:38;21.27;;;15.98;;
4577;SDS011;2301;47.354;8.528;2023-04-09T05:01:05;19.55;;;16.30;;
4577;SDS011;2301;47.354;8.528;2023-04-09T05:03:32;19.02;;;14.73;;
4577;SDS011;2301;47.354;8.528;2023-04-09T05:05:59;20.58;;;16.17;;
4577;SDS011;2301;47.354;8.528;2023-04-09T05:08:27;22.42;;;16.90;;
4577;SDS011;2301;47.354;8.528;2023-04-09T05:10:55;19.00;;;15.95;;
4577;SDS011;2301;47.354;8.528;2023-04-09T05:13:23;19.88;;;16.67;;
4577;SDS011;2301;47.354;8.528;2023-04-09T05:15:50;22.10;;;16.77;;
4577;SDS011;2301;47.354;8.528;2023-04-09T05:18:16;21.67;;;16.85;;
4577;SDS011;2301;47.354;8.528;2023-04-09T05:20:44;21.35;;;16.90;;
4577;SDS011;2301;47.354;8.528;2023-04-09T05:23:11;23.38;;;17.50;;
4577;SDS011;2301;47.354;8.528;2023-04-09T05:25:38;22.92;;;16.27;;
4577;SDS011;2301;47.354;8.528;2023-04-09T05:28:07;19.48;;;16.73;;
4577;SDS011;2301;47.354;8.528;2023-04-09T05:30:35;22.83;;;15.68;;
4577;SDS011;2301;47.354;8.528;2023-04-09T05:33:02;20.25;;;15.52;;
4577;SDS011;2301;47.354;8.528;2023-04-09T05:35:29;19.55;;;16.65;;
4577;SDS011;2301;47.354;8.528;2023-04-09T05:37:56;19.67;;;15.90;;
4577;SDS011;2301;47.354;8.528;2023-04-09T05:40:23;18.50;;;15.80;;
4577;SDS011;2301;47.354;8.528;2023-04-09T05:42:50;19.98;;;16.42;;
4577;SDS011;2301;47.354;8.528;2023-04-09T05:45:18;22.88;;;17.17;;
4577;SDS011;2301;47.354;8.528;2023-04-09T05:47:45;19.38;;;16.10;;
4577;SDS011;2301;47.354;8.528;2023-04-09T05:50:12;18.60;;;15.90;;
4577;SDS011;2301;47.354;8.528;2023-04-09T05:52:40;22.95;;;16.63;;
4577;SDS011;2301;47.354;8.528;2023-04-09T05:55:07;20.88;;;16.48;;
4577;SDS011;2301;47.354;8.528;2023-04-09T05:57:35;22.60;;;17.05;;
4577;SDS011;2301;47.354;8.528;2023-04-09T06:00:02;19.98;;;16.77;;
4577;SDS011;2301;47.354;8.528;2023-04-09T06:02:32;17.88;;;15.85;;
4577;SDS011;2301;47.354;8.528;2023-04-09T06:04:59;18.50;;;16.00;;
4577;SDS011;2301;47.354;8.528;2023-04-09T06:07:26;18.38;;;15.20;;
4577;SDS011;2301;47.354;8.528;2023-04-09T06:09:53;19.98;;;15.68;;
4577;SDS011;2301;47.354;8.528;2023-04-09T06:12:20;21.58;;;15.20;;
4577;SDS011;2301;47.354;8.528;2023-04-09T06:14:48;20.05;;;16.83;;
4577;SDS011;2301;47.354;8.528;2023-04-09T06:17:15;21.13;;;15.73;;
4577;SDS011;2301;47.354;8.528;2023-04-09T06:19:43;19.30;;;15.88;;
4577;SDS011;2301;47.354;8.528;2023-04-09T06:22:10;22.00;;;17.48;;
4577;SDS011;2301;47.354;8.528;2023-04-09T06:24:37;19.00;;;15.65;;
4577;SDS011;2301;47.354;8.528;2023-04-09T06:27:04;19.95;;;15.77;;
4577;SDS011;2301;47.354;8.528;2023-04-09T06:29:31;18.60;;;15.13;;
4577;SDS011;2301;47.354;8.528;2023-04-09T06:31:59;19.73;;;16.17;;
4577;SDS011;2301;47.354;8.528;2023-04-09T06:34:26;18.45;;;15.20;;
4577;SDS011;2301;47.354;8.528;2023-04-09T06:36:55;17.73;;;14.63;;
4577;SDS011;2301;47.354;8.528;2023-04-09T06:39:22;20.20;;;14.88;;
4577;SDS011;2301;47.354;8.528;2023-04-09T06:41:49;17.13;;;14.73;;
4577;SDS011;2301;47.354;8.528;2023-04-09T06:44:16;16.77;;;14.50;;
4577;SDS011;2301;47.354;8.528;2023-04-09T06:46:44;21.27;;;14.90;;
4577;SDS011;2301;47.354;8.528;2023-04-09T06:49:11;18.42;;;15.25;;
4577;SDS011;2301;47.354;8.528;2023-04-09T06:51:38;18.92;;;14.50;;
4577;SDS011;2301;47.354;8.528;2023-04-09T06:54:06;17.95;;;14.05;;
4577;SDS011;2301;47.354;8.528;2023-04-09T06:56:34;16.80;;;14.10;;
4577;SDS011;2301;47.354;8.528;2023-04-09T06:59:01;15.20;;;13.25;;
4577;SDS011;2301;47.354;8.528;2023-04-09T07:01:28;16.30;;;13.70;;
4577;SDS011;2301;47.354;8.528;2023-04-09T07:03:56;17.50;;;12.65;;
4577;SDS011;2301;47.354;8.528;2023-04-09T07:06:23;15.40;;;12.63;;
4577;SDS011;2301;47.354;8.528;2023-04-09T07:08:50;15.77;;;13.27;;
4577;SDS011;2301;47.354;8.528;2023-04-09T07:11:19;16.20;;;12.98;;
4577;SDS011;2301;47.354;8.528;2023-04-09T07:13:46;13.98;;;12.48;;
4577;SDS011;2301;47.354;8.528;2023-04-09T07:16:13;14.13;;;12.32;;
4577;SDS011;2301;47.354;8.528;2023-04-09T07:18:40;14.52;;;12.93;;
4577;SDS011;2301;47.354;8.528;2023-04-09T07:21:07;13.60;;;11.90;;
4577;SDS011;2301;47.354;8.528;2023-04-09T07:23:35;12.57;;;11.27;;
4577;SDS011;2301;47.354;8.528;2023-04-09T07:26:02;14.80;;;12.60;;
4577;SDS011;2301;47.354;8.528;2023-04-09T07:28:31;16.27;;;13.00;;
4577;SDS011;2301;47.354;8.528;2023-04-09T07:30:59;13.00;;;11.57;;
4577;SDS011;2301;47.354;8.528;2023-04-09T07:33:27;14.93;;;12.70;;
4577;SDS011;2301;47.354;8.528;2023-04-09T07:35:53;13.10;;;11.68;;
4577;SDS011;2301;47.354;8.528;2023-04-09T07:38:21;14.80;;;11.47;;
4577;SDS011;2301;47.354;8.528;2023-04-09T07:40:48;11.73;;;10.53;;
4577;SDS011;2301;47.354;8.528;2023-04-09T07:43:15;14.40;;;12.90;;
4577;SDS011;2301;47.354;8.528;2023-04-09T07:45:44;12.93;;;11.63;;
4577;SDS011;2301;47.354;8.528;2023-04-09T07:48:15;15.67;;;11.33;;
4577;SDS011;2301;47.354;8.528;2023-04-09T07:50:42;13.00;;;11.23;;
4577;SDS011;2301;47.354;8.528;2023-04-09T07:53:10;13.10;;;11.37;;
4577;SDS011;2301;47.354;8.528;2023-04-09T07:55:38;14.77;;;11.93;;
4577;SDS011;2301;47.354;8.528;2023-04-09T07:58:05;12.17;;;10.87;;
4577;SDS011;2301;47.354;8.528;2023-04-09T08:00:32;13.17;;;11.57;;
4577;SDS011;2301;47.354;8.528;2023-04-09T08:03:01;12.70;;;10.97;;
4577;SDS011;2301;47.354;8.528;2023-04-09T08:05:28;12.13;;;10.37;;
4577;SDS011;2301;47.354;8.528;2023-04-09T08:07:55;12.33;;;11.03;;
4577;SDS011;2301;47.354;8.528;2023-04-09T08:10:23;12.27;;;10.70;;
4577;SDS011;2301;47.354;8.528;2023-04-09T08:12:50;12.53;;;11.23;;
4577;SDS011;2301;47.354;8.528;2023-04-09T08:15:17;13.50;;;12.10;;
4577;SDS011;2301;47.354;8.528;2023-04-09T08:17:45;13.53;;;12.13;;
4577;SDS011;2301;47.354;8.528;2023-04-09T08:20:14;12.50;;;9.73;;
4577;SDS011;2301;47.354;8.528;2023-04-09T08:22:41;12.20;;;10.93;;
4577;SDS011;2301;47.354;8.528;2023-04-09T08:25:09;12.47;;;11.17;;
4577;SDS011;2301;47.354;8.528;2023-04-09T08:27:36;13.77;;;12.13;;
4577;SDS011;2301;47.354;8.528;2023-04-09T08:30:04;11.87;;;10.33;;
4577;SDS011;2301;47.354;8.528;2023-04-09T08:32:32;11.40;;;10.20;;
4577;SDS011;2301;47.354;8.528;2023-04-09T08:34:59;10.73;;;9.70;;
4577;SDS011;2301;47.354;8.528;2023-04-09T08:37:27;11.63;;;10.43;;
4577;SDS011;2301;47.354;8.528;2023-04-09T08:39:54;11.43;;;10.23;;
4577;SDS011;2301;47.354;8.528;2023-04-09T08:42:21;11.37;;;9.63;;
4577;SDS011;2301;47.354;8.528;2023-04-09T08:44:50;11.57;;;10.37;;
4577;SDS011;2301;47.354;8.528;2023-04-09T08:47:17;11.03;;;9.87;;
4577;SDS011;2301;47.354;8.528;2023-04-09T08:49:45;11.30;;;10.07;;
4577;SDS011;2301;47.354;8.528;2023-04-09T08:52:14;11.00;;;9.80;;
4577;SDS011;2301;47.354;8.528;2023-04-09T08:54:47;9.47;;;8.57;;
4577;SDS011;2301;47.354;8.528;2023-04-09T08:57:16;12.70;;;11.37;;
4577;SDS011;2301;47.354;8.528;2023-04-09T08:59:42;11.33;;;10.13;;
4577;SDS011;2301;47.354;8.528;2023-04-09T09:02:10;13.37;;;10.00;;
4577;SDS011;2301;47.354;8.528;2023-04-09T09:04:44;12.17;;;9.53;;
4577;SDS011;2301;47.354;8.528;2023-04-09T09:07:12;9.63;;;8.63;;
4577;SDS011;2301;47.354;8.528;2023-04-09T09:09:53;11.17;;;10.03;;
4577;SDS011;2301;47.354;8.528;2023-04-09T09:12:32;11.73;;;10.53;;
4577;SDS011;2301;47.354;8.528;2023-04-09T09:15:00;9.80;;;8.80;;
4577;SDS011;2301;47.354;8.528;2023-04-09T09:17:27;11.63;;;10.03;;
4577;SDS011;2301;47.354;8.528;2023-04-09T09:19:54;11.20;;;9.87;;
4577;SDS011;2301;47.354;8.528;2023-04-09T09:22:23;10.70;;;9.60;;
4577;SDS011;2301;47.354;8.528;2023-04-09T09:24:51;11.07;;;9.90;;
4577;SDS011;2301;47.354;8.528;2023-04-09T09:27:30;10.70;;;9.43;;
4577;SDS011;2301;47.354;8.528;2023-04-09T09:30:00;9.57;;;8.63;;
4577;SDS011;2301;47.354;8.528;2023-04-09T09:32:29;9.87;;;8.90;;
4577;SDS011;2301;47.354;8.528;2023-04-09T09:34:56;10.10;;;8.97;;
4577;SDS011;2301;47.354;8.528;2023-04-09T09:37:26;9.33;;;8.43;;
4577;SDS011;2301;47.354;8.528;2023-04-09T09:39:55;9.27;;;8.37;;
4577;SDS011;2301;47.354;8.528;2023-04-09T09:42:22;10.03;;;9.03;;
4577;SDS011;2301;47.354;8.528;2023-04-09T09:44:50;10.33;;;8.80;;
4577;SDS011;2301;47.354;8.528;2023-04-09T09:47:19;8.77;;;7.87;;
4577;SDS011;2301;47.354;8.528;2023-04-09T09:49:46;9.10;;;8.20;;
4577;SDS011;2301;47.354;8.528;2023-04-09T09:52:14;9.70;;;8.70;;
4577;SDS011;2301;47.354;8.528;2023-04-09T09:54:46;9.90;;;8.50;;
4577;SDS011;2301;47.354;8.528;2023-04-09T09:57:18;9.47;;;8.57;;
4577;SDS011;2301;47.354;8.528;2023-04-09T09:59:50;9.37;;;8.47;;
4577;SDS011;2301;47.354;8.528;2023-04-09T10:02:22;9.63;;;8.63;;
4577;SDS011;2301;47.354;8.528;2023-04-09T10:04:51;12.30;;;9.00;;
4577;SDS011;2301;47.354;8.528;2023-04-09T10:07:18;9.63;;;8.63;;
4577;SDS011;2301;47.354;8.528;2023-04-09T10:09:48;8.40;;;7.60;;
4577;SDS011;2301;47.354;8.528;2023-04-09T10:12:16;9.60;;;8.60;;
4577;SDS011;2301;47.354;8.528;2023-04-09T10:14:47;10.00;;;8.67;;
4577;SDS011;2301;47.354;8.528;2023-04-09T10:17:16;10.17;;;8.70;;
4577;SDS011;2301;47.354;8.528;2023-04-09T10:19:46;9.63;;;8.63;;
4577;SDS011;2301;47.354;8.528;2023-04-09T10:22:24;11.63;;;7.60;;
4577;SDS011;2301;47.354;8.528;2023-04-09T10:24:54;9.20;;;8.20;;
4577;SDS011;2301;47.354;8.528;2023-04-09T10:27:24;8.50;;;7.60;;
4577;SDS011;2301;47.354;8.528;2023-04-09T10:29:52;9.67;;;7.87;;
4577;SDS011;2301;47.354;8.528;2023-04-09T10:32:20;7.93;;;7.13;;
4577;SDS011;2301;47.354;8.528;2023-04-09T10:34:50;8.43;;;7.50;;
4577;SDS011;2301;47.354;8.528;2023-04-09T10:37:19;7.03;;;6.33;;
4577;SDS011;2301;47.354;8.528;2023-04-09T10:39:48;8.60;;;7.47;;
4577;SDS011;2301;47.354;8.528;2023-04-09T10:42:17;8.30;;;7.50;;
4577;SDS011;2301;47.354;8.528;2023-04-09T10:47:35;7.23;;;6.53;;
4577;SDS011;2301;47.354;8.528;2023-04-09T10:50:16;7.23;;;6.40;;
4577;SDS011;2301;47.354;8.528;2023-04-09T10:52:44;8.07;;;6.80;;
4577;SDS011;2301;47.354;8.528;2023-04-09T10:57:55;7.20;;;6.50;;
4577;SDS011;2301;47.354;8.528;2023-04-09T11:00:23;7.30;;;6.60;;
4577;SDS011;2301;47.354;8.528;2023-04-09T11:02:58;6.27;;;5.67;;
4577;SDS011;2301;47.354;8.528;2023-04-09T11:05:47;5.57;;;4.97;;
4577;SDS011;2301;47.354;8.528;2023-04-09T11:08:17;6.60;;;5.60;;
4577;SDS011;2301;47.354;8.528;2023-04-09T11:10:46;5.83;;;5.20;;
4577;SDS011;2301;47.354;8.528;2023-04-09T11:13:13;6.00;;;5.40;;
4577;SDS011;2301;47.354;8.528;2023-04-09T11:15:43;6.57;;;5.97;;
4577;SDS011;2301;47.354;8.528;2023-04-09T11:18:12;6.43;;;5.60;;
4577;SDS011;2301;47.354;8.528;2023-04-09T11:20:40;6.60;;;5.90;;
4577;SDS011;2301;47.354;8.528;2023-04-09T11:23:08;6.00;;;5.40;;
4577;SDS011;2301;47.354;8.528;2023-04-09T11:25:37;7.33;;;6.63;;
4577;SDS011;2301;47.354;8.528;2023-04-09T11:28:04;7.00;;;6.30;;
4577;SDS011;2301;47.354;8.528;2023-04-09T11:30:32;6.20;;;5.60;;
4577;SDS011;2301;47.354;8.528;2023-04-09T11:33:01;6.77;;;6.10;;
4577;SDS011;2301;47.354;8.528;2023-04-09T11:35:28;6.27;;;5.67;;
4577;SDS011;2301;47.354;8.528;2023-04-09T11:37:55;6.77;;;6.07;;
4577;SDS011;2301;47.354;8.528;2023-04-09T11:40:22;6.87;;;6.17;;
4577;SDS011;2301;47.354;8.528;2023-04-09T11:42:50;5.90;;;5.20;;
4577;SDS011;2301;47.354;8.528;2023-04-09T11:45:19;5.27;;;4.77;;
4577;SDS011;2301;47.354;8.528;2023-04-09T11:47:48;6.40;;;5.57;;
4577;SDS011;2301;47.354;8.528;2023-04-09T11:50:17;5.40;;;4.90;;
4577;SDS011;2301;47.354;8.528;2023-04-09T11:52:46;5.83;;;5.23;;
4577;SDS011;2301;47.354;8.528;2023-04-09T11:55:21;7.30;;;5.23;;
4577;SDS011;2301;47.354;8.528;2023-04-09T11:57:51;6.77;;;6.07;;
4577;SDS011;2301;47.354;8.528;2023-04-09T12:00:22;6.10;;;5.60;;
4577;SDS011;2301;47.354;8.528;2023-04-09T12:02:49;5.97;;;5.37;;
4577;SDS011;2301;47.354;8.528;2023-04-09T12:05:25;5.00;;;4.50;;
4577;SDS011;2301;47.354;8.528;2023-04-09T12:07:56;6.37;;;5.70;;
4577;SDS011;2301;47.354;8.528;2023-04-09T12:10:25;5.47;;;4.87;;
4577;SDS011;2301;47.354;8.528;2023-04-09T12:12:52;5.87;;;5.27;;
4577;SDS011;2301;47.354;8.528;2023-04-09T12:15:20;5.20;;;4.70;;
4577;SDS011;2301;47.354;8.528;2023-04-09T12:17:48;5.30;;;4.80;;
4577;SDS011;2301;47.354;8.528;2023-04-09T12:20:27;4.50;;;4.10;;
4577;SDS011;2301;47.354;8.528;2023-04-09T12:22:55;5.17;;;4.67;;
4577;SDS011;2301;47.354;8.528;2023-04-09T12:25:24;6.23;;;5.33;;
4577;SDS011;2301;47.354;8.528;2023-04-09T12:27:51;6.00;;;5.40;;
4577;SDS011;2301;47.354;8.528;2023-04-09T12:30:19;4.83;;;4.40;;
4577;SDS011;2301;47.354;8.528;2023-04-09T12:32:47;5.47;;;4.80;;
4577;SDS011;2301;47.354;8.528;2023-04-09T12:35:14;5.50;;;4.60;;
4577;SDS011;2301;47.354;8.528;2023-04-09T12:37:42;4.87;;;4.47;;
4577;SDS011;2301;47.354;8.528;2023-04-09T12:40:10;5.30;;;4.80;;
4577;SDS011;2301;47.354;8.528;2023-04-09T12:42:38;4.90;;;3.70;;
4577;SDS011;2301;47.354;8.528;2023-04-09T12:45:06;4.70;;;4.30;;
4577;SDS011;2301;47.354;8.528;2023-04-09T12:47:34;5.33;;;4.40;;
4577;SDS011;2301;47.354;8.528;2023-04-09T12:50:01;5.93;;;4.33;;
4577;SDS011;2301;47.354;8.528;2023-04-09T12:52:28;4.50;;;4.10;;
4577;SDS011;2301;47.354;8.528;2023-04-09T12:54:57;4.63;;;4.23;;
4577;SDS011;2301;47.354;8.528;2023-04-09T12:57:24;4.47;;;4.07;;
4577;SDS011;2301;47.354;8.528;2023-04-09T12:59:51;4.30;;;3.80;;
4577;SDS011;2301;47.354;8.528;2023-04-09T13:02:18;6.60;;;4.50;;
4577;SDS011;2301;47.354;8.528;2023-04-09T13:04:45;4.80;;;4.30;;
4577;SDS011;2301;47.354;8.528;2023-04-09T13:07:12;5.47;;;4.37;;
4577;SDS011;2301;47.354;8.528;2023-04-09T13:09:41;6.03;;;4.90;;
4577;SDS011;2301;47.354;8.528;2023-04-09T13:12:09;4.77;;;3.40;;
4577;SDS011;2301;47.354;8.528;2023-04-09T13:14:37;3.87;;;3.40;;
4577;SDS011;2301;47.354;8.528;2023-04-09T13:17:05;4.40;;;3.87;;
4577;SDS011;2301;47.354;8.528;2023-04-09T13:19:32;4.10;;;3.60;;
4577;SDS011;2301;47.354;8.528;2023-04-09T13:21:59;4.80;;;3.27;;
4577;SDS011;2301;47.354;8.528;2023-04-09T13:24:26;3.77;;;3.40;;
4577;SDS011;2301;47.354;8.528;2023-04-09T13:26:53;6.90;;;3.60;;
4577;SDS011;2301;47.354;8.528;2023-04-09T13:29:22;5.00;;;4.30;;
4577;SDS011;2301;47.354;8.528;2023-04-09T13:31:50;4.87;;;3.60;;
4577;SDS011;2301;47.354;8.528;2023-04-09T13:34:17;6.17;;;4.77;;
4577;SDS011;2301;47.354;8.528;2023-04-09T13:36:44;4.30;;;3.83;;
4577;SDS011;2301;47.354;8.528;2023-04-09T13:39:11;5.10;;;4.20;;
4577;SDS011;2301;47.354;8.528;2023-04-09T13:41:38;4.80;;;4.00;;
4577;SDS011;2301;47.354;8.528;2023-04-09T13:44:05;4.20;;;3.37;;
4577;SDS011;2301;47.354;8.528;2023-04-09T13:46:33;3.70;;;3.40;;
4577;SDS011;2301;47.354;8.528;2023-04-09T13:49:00;4.67;;;4.20;;
4577;SDS011;2301;47.354;8.528;2023-04-09T13:51:28;4.20;;;3.60;;
4577;SDS011;2301;47.354;8.528;2023-04-09T13:53:55;3.70;;;3.17;;
4577;SDS011;2301;47.354;8.528;2023-04-09T13:56:22;3.73;;;3.30;;
4577;SDS011;2301;47.354;8.528;2023-04-09T13:58:51;4.83;;;3.53;;
4577;SDS011;2301;47.354;8.528;2023-04-09T14:01:18;4.70;;;3.93;;
4577;SDS011;2301;47.354;8.528;2023-04-09T14:03:47;4.50;;;4.10;;
4577;SDS011;2301;47.354;8.528;2023-04-09T14:06:14;5.97;;;3.93;;
4577;SDS011;2301;47.354;8.528;2023-04-09T14:08:40;3.00;;;2.60;;
4577;SDS011;2301;47.354;8.528;2023-04-09T14:11:07;5.23;;;3.27;;
4577;SDS011;2301;47.354;8.528;2023-04-09T14:13:38;7.03;;;3.30;;
4577;SDS011;2301;47.354;8.528;2023-04-09T14:16:05;4.60;;;3.83;;
4577;SDS011;2301;47.354;8.528;2023-04-09T14:18:33;3.70;;;3.40;;
4577;SDS011;2301;47.354;8.528;2023-04-09T14:21:01;4.57;;;3.70;;
4577;SDS011;2301;47.354;8.528;2023-04-09T14:23:28;3.57;;;3.17;;
4577;SDS011;2301;47.354;8.528;2023-04-09T14:25:55;3.70;;;3.37;;
4577;SDS011;2301;47.354;8.528;2023-04-09T14:28:23;2.83;;;2.40;;
4577;SDS011;2301;47.354;8.528;2023-04-09T14:30:50;3.90;;;3.03;;
4577;SDS011;2301;47.354;8.528;2023-04-09T14:33:17;5.87;;;3.37;;
4577;SDS011;2301;47.354;8.528;2023-04-09T14:35:44;3.10;;;2.57;;
4577;SDS011;2301;47.354;8.528;2023-04-09T14:38:13;4.50;;;3.30;;
4577;SDS011;2301;47.354;8.528;2023-04-09T14:40:40;3.70;;;3.30;;
4577;SDS011;2301;47.354;8.528;2023-04-09T14:43:07;3.07;;;2.60;;
4577;SDS011;2301;47.354;8.528;2023-04-09T14:45:34;3.70;;;3.10;;
4577;SDS011;2301;47.354;8.528;2023-04-09T14:48:01;3.80;;;3.17;;
4577;SDS011;2301;47.354;8.528;2023-04-09T14:50:29;3.90;;;2.90;;
4577;SDS011;2301;47.354;8.528;2023-04-09T14:52:56;3.50;;;3.07;;
4577;SDS011;2301;47.354;8.528;2023-04-09T14:55:24;4.20;;;3.80;;
4577;SDS011;2301;47.354;8.528;2023-04-09T14:57:51;4.50;;;3.87;;
4577;SDS011;2301;47.354;8.528;2023-04-09T15:00:18;3.70;;;3.30;;
4577;SDS011;2301;47.354;8.528;2023-04-09T15:02:46;5.50;;;3.60;;
4577;SDS011;2301;47.354;8.528;2023-04-09T15:05:13;5.00;;;3.50;;
4577;SDS011;2301;47.354;8.528;2023-04-09T15:07:40;3.37;;;3.07;;
4577;SDS011;2301;47.354;8.528;2023-04-09T15:10:08;3.30;;;3.00;;